sensor_id;sensor_type;location;lat;lon;timestamp;pressure;altitude;pressure_sealevel;temperature;humidity
1472;BME280;963;42.644;23.336;2023-11-19T00:01:32;94109.41;;;5.48;63.84
1472;BME280;963;42.644;23.336;2023-11-19T00:03:58;94119.88;;;5.60;63.13
1472;BME280;963;42.644;23.336;2023-11-19T00:06:23;94098.69;;;5.61;63.78
1472;BME280;963;42.644;23.336;2023-11-19T00:08:50;94123.69;;;5.75;62.72
1472;BME280;963;42.644;23.336;2023-11-19T00:11:15;94115.09;;;5.62;63.23
1472;BME280;963;42.644;23.336;2023-11-19T00:13:41;94109.88;;;5.62;63.23
1472;BME280;963;42.644;23.336;2023-11-19T00:16:07;94129.22;;;5.73;62.64
1472;BME280;963;42.644;23.336;2023-11-19T00:18:33;94115.31;;;5.69;62.97
1472;BME280;963;42.644;23.336;2023-11-19T00:20:58;94114.22;;;5.58;62.22
1472;BME280;963;42.644;23.336;2023-11-19T00:23:23;94129.44;;;5.80;62.21
1472;BME280;963;42.644;23.336;2023-11-19T00:25:49;94117.47;;;5.67;62.66
1472;BME280;963;42.644;23.336;2023-11-19T00:28:14;94114.22;;;5.58;62.97
1472;BME280;963;42.644;23.336;2023-11-19T00:30:40;94113.69;;;5.64;62.94
1472;BME280;963;42.644;23.336;2023-11-19T00:33:08;94121.38;;;5.73;62.11
1472;BME280;963;42.644;23.336;2023-11-19T00:35:33;94114.00;;;5.75;62.28
1472;BME280;963;42.644;23.336;2023-11-19T00:37:59;94115.63;;;5.68;63.08
1472;BME280;963;42.644;23.336;2023-11-19T00:40:24;94124.97;;;5.69;62.17
1472;BME280;963;42.644;23.336;2023-11-19T00:42:50;94127.03;;;5.75;62.87
1472;BME280;963;42.644;23.336;2023-11-19T00:45:15;94122.91;;;5.74;62.66
1472;BME280;963;42.644;23.336;2023-11-19T00:47:41;94139.34;;;5.75;62.70
1472;BME280;963;42.644;23.336;2023-11-19T00:50:07;94139.22;;;5.59;63.34
1472;BME280;963;42.644;23.336;2023-11-19T00:52:36;94131.41;;;5.59;62.76
1472;BME280;963;42.644;23.336;2023-11-19T00:55:03;94122.47;;;5.60;63.09
1472;BME280;963;42.644;23.336;2023-11-19T00:57:29;94125.25;;;5.30;64.24
1472;BME280;963;42.644;23.336;2023-11-19T00:59:55;94136.28;;;5.60;62.86
1472;BME280;963;42.644;23.336;2023-11-19T01:02:20;94108.75;;;5.51;63.36
1472;BME280;963;42.644;23.336;2023-11-19T01:04:46;94132.56;;;5.49;63.26
1472;BME280;963;42.644;23.336;2023-11-19T01:07:11;94144.44;;;5.59;63.38
1472;BME280;963;42.644;23.336;2023-11-19T01:09:38;94144.72;;;5.45;63.23
1472;BME280;963;42.644;23.336;2023-11-19T01:12:03;94147.00;;;5.47;63.67
1472;BME280;963;42.644;23.336;2023-11-19T01:14:29;94134.19;;;5.54;63.57
1472;BME280;963;42.644;23.336;2023-11-19T01:16:55;94155.69;;;5.51;63.48
1472;BME280;963;42.644;23.336;2023-11-19T01:19:21;94122.44;;;5.48;63.52
1472;BME280;963;42.644;23.336;2023-11-19T01:21:48;94119.72;;;5.44;63.91
1472;BME280;963;42.644;23.336;2023-11-19T01:24:13;94127.00;;;5.39;63.44
1472;BME280;963;42.644;23.336;2023-11-19T01:26:40;94144.28;;;5.43;63.33
1472;BME280;963;42.644;23.336;2023-11-19T01:29:13;94120.59;;;5.48;63.49
1472;BME280;963;42.644;23.336;2023-11-19T01:31:42;94120.38;;;5.41;63.17
1472;BME280;963;42.644;23.336;2023-11-19T01:34:08;94117.63;;;5.25;63.54
1472;BME280;963;42.644;23.336;2023-11-19T01:36:35;94100.69;;;5.31;63.29
1472;BME280;963;42.644;23.336;2023-11-19T01:39:00;94118.75;;;5.37;63.36
1472;BME280;963;42.644;23.336;2023-11-19T01:41:26;94105.25;;;5.34;63.30
1472;BME280;963;42.644;23.336;2023-11-19T01:43:51;94121.13;;;5.42;62.74
1472;BME280;963;42.644;23.336;2023-11-19T01:46:17;94111.56;;;5.46;62.66
1472;BME280;963;42.644;23.336;2023-11-19T01:48:44;94114.28;;;5.37;62.52
1472;BME280;963;42.644;23.336;2023-11-19T01:51:14;94114.16;;;5.33;62.89
1472;BME280;963;42.644;23.336;2023-11-19T01:53:42;94129.59;;;5.26;62.90
1472;BME280;963;42.644;23.336;2023-11-19T01:56:09;94133.06;;;5.30;63.25
1472;BME280;963;42.644;23.336;2023-11-19T01:58:37;94139.72;;;5.40;62.73
1472;BME280;963;42.644;23.336;2023-11-19T02:01:04;94144.28;;;5.43;62.50
1472;BME280;963;42.644;23.336;2023-11-19T02:03:31;94141.13;;;5.38;62.27
1472;BME280;963;42.644;23.336;2023-11-19T02:05:58;94164.28;;;5.39;61.94
1472;BME280;963;42.644;23.336;2023-11-19T02:08:24;94140.34;;;5.25;62.32
1472;BME280;963;42.644;23.336;2023-11-19T02:10:49;94138.94;;;5.40;62.48
1472;BME280;963;42.644;23.336;2023-11-19T02:13:15;94148.75;;;5.43;61.84
1472;BME280;963;42.644;23.336;2023-11-19T02:15:41;94131.47;;;5.50;61.58
1472;BME280;963;42.644;23.336;2023-11-19T02:18:20;94157.56;;;5.50;61.96
1472;BME280;963;42.644;23.336;2023-11-19T02:20:47;94139.41;;;5.54;61.35
1472;BME280;963;42.644;23.336;2023-11-19T02:23:13;94137.13;;;5.52;61.01
1472;BME280;963;42.644;23.336;2023-11-19T02:25:40;94138.94;;;5.40;61.35
1472;BME280;963;42.644;23.336;2023-11-19T02:28:06;94146.56;;;5.45;61.16
1472;BME280;963;42.644;23.336;2023-11-19T02:30:32;94136.91;;;5.45;60.75
1472;BME280;963;42.644;23.336;2023-11-19T02:32:59;94152.78;;;5.52;61.05
1472;BME280;963;42.644;23.336;2023-11-19T02:35:27;94143.19;;;5.44;60.97
1472;BME280;963;42.644;23.336;2023-11-19T02:37:56;94145.91;;;5.48;61.10
1472;BME280;963;42.644;23.336;2023-11-19T02:40:21;94130.75;;;5.17;62.23
1472;BME280;963;42.644;23.336;2023-11-19T02:42:48;94166.88;;;5.39;60.73
1472;BME280;963;42.644;23.336;2023-11-19T02:45:14;94142.22;;;5.37;61.26
1472;BME280;963;42.644;23.336;2023-11-19T02:47:43;94130.69;;;5.38;61.38
1472;BME280;963;42.644;23.336;2023-11-19T02:50:10;94136.44;;;5.31;61.17
1472;BME280;963;42.644;23.336;2023-11-19T02:52:51;94142.22;;;5.37;61.45
1472;BME280;963;42.644;23.336;2023-11-19T02:55:17;94143.19;;;5.32;61.11
1472;BME280;963;42.644;23.336;2023-11-19T02:57:43;94135.16;;;5.37;61.35
1472;BME280;963;42.644;23.336;2023-11-19T03:00:17;94126.72;;;5.19;61.26
1472;BME280;963;42.644;23.336;2023-11-19T03:02:44;94129.59;;;5.26;61.33
1472;BME280;963;42.644;23.336;2023-11-19T03:05:16;94124.16;;;5.31;61.59
1472;BME280;963;42.644;23.336;2023-11-19T03:07:44;94127.41;;;5.28;60.77
1472;BME280;963;42.644;23.336;2023-11-19T03:10:10;94120.03;;;5.30;61.64
1472;BME280;963;42.644;23.336;2023-11-19T03:12:43;94143.28;;;5.36;60.94
1472;BME280;963;42.644;23.336;2023-11-19T03:15:09;94118.44;;;5.05;61.51
1472;BME280;963;42.644;23.336;2023-11-19T03:17:44;94109.53;;;5.06;61.95
1472;BME280;963;42.644;23.336;2023-11-19T03:20:11;94143.78;;;5.17;62.20
1472;BME280;963;42.644;23.336;2023-11-19T03:22:42;94124.25;;;5.23;61.72
1472;BME280;963;42.644;23.336;2023-11-19T03:25:09;94137.16;;;5.19;62.06
1472;BME280;963;42.644;23.336;2023-11-19T03:27:38;94130.31;;;5.15;62.39
1472;BME280;963;42.644;23.336;2023-11-19T03:30:08;94126.25;;;5.05;61.94
1472;BME280;963;42.644;23.336;2023-11-19T03:32:37;94139.91;;;5.23;61.87
1472;BME280;963;42.644;23.336;2023-11-19T03:35:05;94139.91;;;5.23;61.67
1472;BME280;963;42.644;23.336;2023-11-19T03:37:32;94145.13;;;5.23;61.21
1472;BME280;963;42.644;23.336;2023-11-19T03:39:58;94133.13;;;5.10;61.83
1472;BME280;963;42.644;23.336;2023-11-19T03:42:27;94143.97;;;5.12;62.02
1472;BME280;963;42.644;23.336;2023-11-19T03:44:53;94144.94;;;5.07;61.77
1472;BME280;963;42.644;23.336;2023-11-19T03:47:19;94143.19;;;4.99;61.94
1472;BME280;963;42.644;23.336;2023-11-19T03:49:51;94145.16;;;5.02;61.89
1472;BME280;963;42.644;23.336;2023-11-19T03:52:17;94167.03;;;4.89;63.01
1472;BME280;963;42.644;23.336;2023-11-19T03:54:43;94170.66;;;4.96;62.52
1472;BME280;963;42.644;23.336;2023-11-19T03:57:09;94179.34;;;4.80;62.88
1472;BME280;963;42.644;23.336;2023-11-19T03:59:37;94166.00;;;5.02;62.64
1472;BME280;963;42.644;23.336;2023-11-19T04:02:03;94165.13;;;4.98;62.74
1472;BME280;963;42.644;23.336;2023-11-19T04:04:28;94163.19;;;5.07;62.25
1472;BME280;963;42.644;23.336;2023-11-19T04:06:57;94182.88;;;5.17;62.41
1472;BME280;963;42.644;23.336;2023-11-19T04:09:23;94204.75;;;5.24;62.00
1472;BME280;963;42.644;23.336;2023-11-19T04:11:48;94182.13;;;5.16;61.76
1472;BME280;963;42.644;23.336;2023-11-19T04:14:14;94190.97;;;5.24;62.04
1472;BME280;963;42.644;23.336;2023-11-19T04:16:40;94207.53;;;5.19;62.08
1472;BME280;963;42.644;23.336;2023-11-19T04:19:06;94188.72;;;5.14;62.65
1472;BME280;963;42.644;23.336;2023-11-19T04:21:32;94199.03;;;5.10;62.07
1472;BME280;963;42.644;23.336;2023-11-19T04:23:57;94172.13;;;5.18;62.26
1472;BME280;963;42.644;23.336;2023-11-19T04:26:23;94170.44;;;5.01;62.87
1472;BME280;963;42.644;23.336;2023-11-19T04:28:48;94158.38;;;4.97;62.36
1472;BME280;963;42.644;23.336;2023-11-19T04:31:15;94171.72;;;4.95;62.51
1472;BME280;963;42.644;23.336;2023-11-19T04:33:41;94176.34;;;5.11;62.29
1472;BME280;963;42.644;23.336;2023-11-19T04:36:07;94175.41;;;4.94;61.97
1472;BME280;963;42.644;23.336;2023-11-19T04:38:33;94198.47;;;5.05;62.05
1472;BME280;963;42.644;23.336;2023-11-19T04:40:58;94201.09;;;5.05;62.57
1472;BME280;963;42.644;23.336;2023-11-19T04:43:23;94224.81;;;4.91;62.22
1472;BME280;963;42.644;23.336;2023-11-19T04:45:49;94213.31;;;4.92;62.51
1472;BME280;963;42.644;23.336;2023-11-19T04:48:14;94196.41;;;4.98;62.24
1472;BME280;963;42.644;23.336;2023-11-19T04:50:40;94200.72;;;4.94;61.73
1472;BME280;963;42.644;23.336;2023-11-19T04:53:05;94194.47;;;5.07;61.69
1472;BME280;963;42.644;23.336;2023-11-19T04:55:30;94206.41;;;5.08;61.49
1472;BME280;963;42.644;23.336;2023-11-19T04:57:56;94199.03;;;5.10;61.26
1472;BME280;963;42.644;23.336;2023-11-19T05:00:21;94206.41;;;5.08;61.34
1472;BME280;963;42.644;23.336;2023-11-19T05:02:47;94227.91;;;5.05;61.68
1472;BME280;963;42.644;23.336;2023-11-19T05:05:12;94205.41;;;5.00;61.17
1472;BME280;963;42.644;23.336;2023-11-19T05:07:38;94234.00;;;5.09;60.90
1472;BME280;963;42.644;23.336;2023-11-19T05:10:04;94230.75;;;5.12;61.37
1472;BME280;963;42.644;23.336;2023-11-19T05:12:31;94243.88;;;5.03;61.55
1472;BME280;963;42.644;23.336;2023-11-19T05:14:56;94245.53;;;5.08;61.10
1472;BME280;963;42.644;23.336;2023-11-19T05:17:23;94246.97;;;5.18;60.59
1472;BME280;963;42.644;23.336;2023-11-19T05:19:48;94251.19;;;5.10;61.17
1472;BME280;963;42.644;23.336;2023-11-19T05:22:14;94223.78;;;5.04;60.85
1472;BME280;963;42.644;23.336;2023-11-19T05:24:39;94238.34;;;5.05;61.23
1472;BME280;963;42.644;23.336;2023-11-19T05:27:06;94230.31;;;5.10;61.02
1472;BME280;963;42.644;23.336;2023-11-19T05:29:32;94203.25;;;4.82;60.83
1472;BME280;963;42.644;23.336;2023-11-19T05:31:57;94233.63;;;4.78;61.87
1472;BME280;963;42.644;23.336;2023-11-19T05:34:23;94231.88;;;4.90;61.66
1472;BME280;963;42.644;23.336;2023-11-19T05:36:48;94213.66;;;4.82;61.86
1472;BME280;963;42.644;23.336;2023-11-19T05:39:15;94243.09;;;5.03;61.59
1472;BME280;963;42.644;23.336;2023-11-19T05:41:40;94240.31;;;5.08;61.27
1472;BME280;963;42.644;23.336;2023-11-19T05:44:06;94253.72;;;4.98;61.34
1472;BME280;963;42.644;23.336;2023-11-19T05:46:31;94220.16;;;4.76;61.73
1472;BME280;963;42.644;23.336;2023-11-19T05:48:57;94238.09;;;4.98;61.52
1472;BME280;963;42.644;23.336;2023-11-19T05:51:23;94242.41;;;4.94;61.37
1472;BME280;963;42.644;23.336;2023-11-19T05:53:49;94216.03;;;4.95;61.43
1472;BME280;963;42.644;23.336;2023-11-19T05:56:15;94261.47;;;4.86;61.74
1472;BME280;963;42.644;23.336;2023-11-19T05:58:46;94230.47;;;4.93;61.85
1472;BME280;963;42.644;23.336;2023-11-19T06:01:13;94240.13;;;4.92;62.00
1472;BME280;963;42.644;23.336;2023-11-19T06:03:38;94224.38;;;4.89;61.83
1472;BME280;963;42.644;23.336;2023-11-19T06:06:04;94251.88;;;4.98;61.63
1472;BME280;963;42.644;23.336;2023-11-19T06:08:30;94259.00;;;5.10;60.87
1472;BME280;963;42.644;23.336;2023-11-19T06:10:55;94263.38;;;5.18;60.84
1472;BME280;963;42.644;23.336;2023-11-19T06:13:21;94270.81;;;5.08;61.30
1472;BME280;963;42.644;23.336;2023-11-19T06:15:47;94263.75;;;5.08;61.02
1472;BME280;963;42.644;23.336;2023-11-19T06:18:12;94285.75;;;4.98;61.61
1472;BME280;963;42.644;23.336;2023-11-19T06:20:38;94244.56;;;4.92;61.72
1472;BME280;963;42.644;23.336;2023-11-19T06:23:03;94270.72;;;4.75;62.82
1472;BME280;963;42.644;23.336;2023-11-19T06:25:29;94274.13;;;4.96;62.14
1472;BME280;963;42.644;23.336;2023-11-19T06:27:54;94266.56;;;5.03;61.79
1472;BME280;963;42.644;23.336;2023-11-19T06:30:19;94247.16;;;4.71;62.26
1472;BME280;963;42.644;23.336;2023-11-19T06:32:46;94255.00;;;4.92;62.22
1472;BME280;963;42.644;23.336;2023-11-19T06:35:12;94276.28;;;4.94;61.46
1472;BME280;963;42.644;23.336;2023-11-19T06:37:39;94254.81;;;4.97;61.83
1472;BME280;963;42.644;23.336;2023-11-19T06:40:05;94271.00;;;5.02;62.08
1472;BME280;963;42.644;23.336;2023-11-19T06:42:31;94253.09;;;5.01;61.91
1472;BME280;963;42.644;23.336;2023-11-19T06:44:56;94244.00;;;5.07;61.20
1472;BME280;963;42.644;23.336;2023-11-19T06:47:28;94261.34;;;5.03;61.80
1472;BME280;963;42.644;23.336;2023-11-19T06:49:54;94251.06;;;5.07;61.70
1472;BME280;963;42.644;23.336;2023-11-19T06:52:20;94257.47;;;5.09;61.39
1472;BME280;963;42.644;23.336;2023-11-19T06:54:45;94243.50;;;4.93;61.52
1472;BME280;963;42.644;23.336;2023-11-19T06:57:11;94276.59;;;5.13;61.61
1472;BME280;963;42.644;23.336;2023-11-19T06:59:37;94263.25;;;5.15;61.13
1472;BME280;963;42.644;23.336;2023-11-19T07:02:03;94288.75;;;5.09;61.05
1472;BME280;963;42.644;23.336;2023-11-19T07:04:30;94267.66;;;5.02;60.69
1472;BME280;963;42.644;23.336;2023-11-19T07:06:55;94279.41;;;5.08;61.26
1472;BME280;963;42.644;23.336;2023-11-19T07:09:20;94272.50;;;4.83;61.45
1472;BME280;963;42.644;23.336;2023-11-19T07:11:46;94292.63;;;5.03;60.79
1472;BME280;963;42.644;23.336;2023-11-19T07:14:11;94290.41;;;4.93;61.06
1472;BME280;963;42.644;23.336;2023-11-19T07:16:37;94292.63;;;5.03;60.64
1472;BME280;963;42.644;23.336;2023-11-19T07:19:04;94272.69;;;4.78;61.05
1472;BME280;963;42.644;23.336;2023-11-19T07:21:30;94297.84;;;5.03;60.33
1472;BME280;963;42.644;23.336;2023-11-19T07:23:56;94290.28;;;4.89;60.56
1472;BME280;963;42.644;23.336;2023-11-19T07:26:22;94292.19;;;5.01;60.46
1472;BME280;963;42.644;23.336;2023-11-19T07:28:48;94301.34;;;5.07;60.10
1472;BME280;963;42.644;23.336;2023-11-19T07:31:14;94297.53;;;4.84;60.92
1472;BME280;963;42.644;23.336;2023-11-19T07:33:39;94312.34;;;5.13;60.23
1472;BME280;963;42.644;23.336;2023-11-19T07:36:08;94326.88;;;5.22;59.91
1472;BME280;963;42.644;23.336;2023-11-19T07:38:34;94353.19;;;5.29;59.95
1472;BME280;963;42.644;23.336;2023-11-19T07:40:59;94316.69;;;5.29;59.52
1472;BME280;963;42.644;23.336;2023-11-19T07:43:25;94332.00;;;5.31;59.53
1472;BME280;963;42.644;23.336;2023-11-19T07:45:50;94323.69;;;5.38;59.09
1472;BME280;963;42.644;23.336;2023-11-19T07:48:16;94330.63;;;5.33;58.82
1472;BME280;963;42.644;23.336;2023-11-19T07:50:43;94315.94;;;5.29;59.26
1472;BME280;963;42.644;23.336;2023-11-19T07:53:08;94336.78;;;5.29;59.48
1472;BME280;963;42.644;23.336;2023-11-19T07:55:34;94344.72;;;5.32;58.68
1472;BME280;963;42.644;23.336;2023-11-19T07:57:59;94337.03;;;5.36;58.83
1472;BME280;963;42.644;23.336;2023-11-19T08:00:25;94335.13;;;5.24;58.90
1472;BME280;963;42.644;23.336;2023-11-19T08:02:50;94341.94;;;5.38;58.72
1472;BME280;963;42.644;23.336;2023-11-19T08:05:15;94335.00;;;5.42;58.66
1472;BME280;963;42.644;23.336;2023-11-19T08:07:41;94335.63;;;5.39;58.33
1472;BME280;963;42.644;23.336;2023-11-19T08:10:07;94361.31;;;5.49;58.15
1472;BME280;963;42.644;23.336;2023-11-19T08:12:35;94333.97;;;5.13;58.21
1472;BME280;963;42.644;23.336;2023-11-19T08:15:02;94340.97;;;5.21;58.57
1472;BME280;963;42.644;23.336;2023-11-19T08:17:30;94368.41;;;5.19;58.74
1472;BME280;963;42.644;23.336;2023-11-19T08:19:55;94352.94;;;5.22;58.87
1472;BME280;963;42.644;23.336;2023-11-19T08:22:20;94369.09;;;5.37;58.23
1472;BME280;963;42.644;23.336;2023-11-19T08:24:47;94347.97;;;5.29;58.64
1472;BME280;963;42.644;23.336;2023-11-19T08:27:13;94351.91;;;5.36;58.30
1472;BME280;963;42.644;23.336;2023-11-19T08:29:38;94358.41;;;5.29;58.61
1472;BME280;963;42.644;23.336;2023-11-19T08:32:04;94370.88;;;5.45;58.33
1472;BME280;963;42.644;23.336;2023-11-19T08:34:30;94364.00;;;5.40;58.62
1472;BME280;963;42.644;23.336;2023-11-19T08:36:56;94342.25;;;5.36;58.49
1472;BME280;963;42.644;23.336;2023-11-19T08:39:21;94348.22;;;5.37;58.66
1472;BME280;963;42.644;23.336;2023-11-19T08:41:49;94357.38;;;5.43;58.21
1472;BME280;963;42.644;23.336;2023-11-19T08:44:15;94368.72;;;5.47;58.72
1472;BME280;963;42.644;23.336;2023-11-19T08:46:50;94367.00;;;5.51;58.79
1472;BME280;963;42.644;23.336;2023-11-19T08:49:16;94349.16;;;5.53;57.61
1472;BME280;963;42.644;23.336;2023-11-19T08:51:41;94360.31;;;5.41;57.88
1472;BME280;963;42.644;23.336;2023-11-19T08:54:07;94349.28;;;5.77;57.87
1472;BME280;963;42.644;23.336;2023-11-19T08:56:32;94353.59;;;5.61;57.22
1472;BME280;963;42.644;23.336;2023-11-19T08:59:00;94350.13;;;5.69;57.00
1472;BME280;963;42.644;23.336;2023-11-19T09:01:25;94368.16;;;5.62;57.17
1472;BME280;963;42.644;23.336;2023-11-19T09:03:51;94359.94;;;5.72;56.84
1472;BME280;963;42.644;23.336;2023-11-19T09:06:16;94334.34;;;5.65;56.57
1472;BME280;963;42.644;23.336;2023-11-19T09:08:42;94339.97;;;5.88;56.42
1472;BME280;963;42.644;23.336;2023-11-19T09:11:08;94355.59;;;5.97;56.29
1472;BME280;963;42.644;23.336;2023-11-19T09:13:35;94323.06;;;5.94;56.38
1472;BME280;963;42.644;23.336;2023-11-19T09:16:00;94327.84;;;5.72;56.91
1472;BME280;963;42.644;23.336;2023-11-19T09:18:29;94328.75;;;5.97;56.62
1472;BME280;963;42.644;23.336;2023-11-19T09:20:54;94339.09;;;6.05;56.09
1472;BME280;963;42.644;23.336;2023-11-19T09:23:20;94338.53;;;6.00;56.39
1472;BME280;963;42.644;23.336;2023-11-19T09:25:45;94342.72;;;6.25;56.63
1472;BME280;963;42.644;23.336;2023-11-19T09:28:10;94337.44;;;6.34;55.55
1472;BME280;963;42.644;23.336;2023-11-19T09:30:36;94348.38;;;6.27;56.08
1472;BME280;963;42.644;23.336;2023-11-19T09:33:01;94339.50;;;6.40;55.23
1472;BME280;963;42.644;23.336;2023-11-19T09:35:27;94309.25;;;6.39;55.80
1472;BME280;963;42.644;23.336;2023-11-19T09:37:52;94312.91;;;6.26;55.87
1472;BME280;963;42.644;23.336;2023-11-19T09:40:18;94270.91;;;6.19;55.46
1472;BME280;963;42.644;23.336;2023-11-19T09:42:44;94276.69;;;6.61;53.69
1472;BME280;963;42.644;23.336;2023-11-19T09:45:15;94288.13;;;6.81;54.25
1472;BME280;963;42.644;23.336;2023-11-19T09:47:45;94295.63;;;7.07;53.54
1472;BME280;963;42.644;23.336;2023-11-19T09:50:18;94292.41;;;7.26;53.19
1472;BME280;963;42.644;23.336;2023-11-19T09:52:44;94282.63;;;7.50;52.08
1472;BME280;963;42.644;23.336;2023-11-19T09:55:10;94264.41;;;7.54;52.31
1472;BME280;963;42.644;23.336;2023-11-19T09:57:38;94258.94;;;7.59;52.67
1472;BME280;963;42.644;23.336;2023-11-19T10:00:05;94271.50;;;7.81;52.25
1472;BME280;963;42.644;23.336;2023-11-19T10:02:33;94241.94;;;7.97;51.54
1472;BME280;963;42.644;23.336;2023-11-19T10:05:06;94273.91;;;8.18;50.54
1472;BME280;963;42.644;23.336;2023-11-19T10:07:33;94256.56;;;8.29;50.39
1472;BME280;963;42.644;23.336;2023-11-19T10:10:02;94240.63;;;8.34;50.19
1472;BME280;963;42.644;23.336;2023-11-19T10:12:31;94253.13;;;8.25;50.19
1472;BME280;963;42.644;23.336;2023-11-19T10:14:57;94239.75;;;8.62;49.47
1472;BME280;963;42.644;23.336;2023-11-19T10:17:29;94255.94;;;8.83;49.29
1472;BME280;963;42.644;23.336;2023-11-19T10:19:55;94263.44;;;9.00;48.58
1472;BME280;963;42.644;23.336;2023-11-19T10:22:22;94269.88;;;8.87;48.78
1472;BME280;963;42.644;23.336;2023-11-19T10:24:48;94273.75;;;9.28;47.54
1472;BME280;963;42.644;23.336;2023-11-19T10:27:13;94271.34;;;9.58;46.91
1472;BME280;963;42.644;23.336;2023-11-19T10:29:40;94273.03;;;9.66;45.82
1472;BME280;963;42.644;23.336;2023-11-19T10:32:05;94258.09;;;9.70;45.90
1472;BME280;963;42.644;23.336;2023-11-19T10:34:31;94258.09;;;9.70;46.04
1472;BME280;963;42.644;23.336;2023-11-19T10:36:56;94246.94;;;9.00;47.07
1472;BME280;963;42.644;23.336;2023-11-19T10:39:22;94264.06;;;8.94;45.91
1472;BME280;963;42.644;23.336;2023-11-19T10:41:49;94251.44;;;9.19;46.48
1472;BME280;963;42.644;23.336;2023-11-19T10:44:31;94245.44;;;9.57;45.64
1472;BME280;963;42.644;23.336;2023-11-19T10:46:59;94266.09;;;9.78;45.05
1472;BME280;963;42.644;23.336;2023-11-19T10:49:24;94254.56;;;9.63;45.10
1472;BME280;963;42.644;23.336;2023-11-19T10:51:50;94257.59;;;9.65;45.09
1472;BME280;963;42.644;23.336;2023-11-19T10:54:19;94255.94;;;9.57;45.17
1472;BME280;963;42.644;23.336;2023-11-19T10:56:44;94228.97;;;9.79;44.73
1472;BME280;963;42.644;23.336;2023-11-19T10:59:15;94230.59;;;10.07;44.66
1472;BME280;963;42.644;23.336;2023-11-19T11:01:45;94234.44;;;10.36;43.85
1472;BME280;963;42.644;23.336;2023-11-19T11:04:20;94231.34;;;10.53;43.09
1472;BME280;963;42.644;23.336;2023-11-19T11:06:47;94223.09;;;10.81;42.37
1472;BME280;963;42.644;23.336;2023-11-19T11:09:13;94225.16;;;10.94;41.91
1472;BME280;963;42.644;23.336;2023-11-19T11:11:40;94201.88;;;10.96;42.13
1472;BME280;963;42.644;23.336;2023-11-19T11:14:11;94186.44;;;11.25;41.49
1472;BME280;963;42.644;23.336;2023-11-19T11:16:40;94207.22;;;11.71;41.07
1472;BME280;963;42.644;23.336;2023-11-19T11:19:07;94199.34;;;11.71;40.66
1472;BME280;963;42.644;23.336;2023-11-19T11:21:36;94206.75;;;11.95;40.00
1472;BME280;963;42.644;23.336;2023-11-19T11:37:34;94201.78;;;12.93;38.46
1472;BME280;963;42.644;23.336;2023-11-19T11:40:02;94215.09;;;13.10;38.27
1472;BME280;963;42.644;23.336;2023-11-19T11:42:36;94190.22;;;13.15;38.18
1472;BME280;963;42.644;23.336;2023-11-19T11:45:09;94181.69;;;13.43;37.65
1472;BME280;963;42.644;23.336;2023-11-19T11:55:37;94173.84;;;13.79;37.37
1472;BME280;963;42.644;23.336;2023-11-19T11:58:03;94181.34;;;13.59;36.97
1472;BME280;963;42.644;23.336;2023-11-19T12:03:01;94186.34;;;14.14;36.75
1472;BME280;963;42.644;23.336;2023-11-19T12:05:27;94170.09;;;14.29;36.53
1472;BME280;963;42.644;23.336;2023-11-19T12:07:56;94184.84;;;14.45;36.46
1472;BME280;963;42.644;23.336;2023-11-19T12:10:25;94165.94;;;14.53;36.29
1472;BME280;963;42.644;23.336;2023-11-19T12:12:58;94170.88;;;14.51;35.86
1472;BME280;963;42.644;23.336;2023-11-19T12:15:23;94178.06;;;14.54;36.16
1472;BME280;963;42.644;23.336;2023-11-19T12:17:51;94168.97;;;14.62;35.60
1472;BME280;963;42.644;23.336;2023-11-19T12:20:18;94157.59;;;14.73;35.67
1472;BME280;963;42.644;23.336;2023-11-19T12:22:45;94167.03;;;14.74;35.41
1472;BME280;963;42.644;23.336;2023-11-19T12:25:11;94153.38;;;14.86;35.16
1472;BME280;963;42.644;23.336;2023-11-19T12:27:49;94140.88;;;14.97;35.10
1472;BME280;963;42.644;23.336;2023-11-19T12:30:32;94132.13;;;15.07;34.90
1472;BME280;963;42.644;23.336;2023-11-19T12:32:58;94135.88;;;15.13;34.79
1472;BME280;963;42.644;23.336;2023-11-19T12:35:24;94144.22;;;15.12;34.66
1472;BME280;963;42.644;23.336;2023-11-19T12:37:50;94126.72;;;15.36;34.17
1472;BME280;963;42.644;23.336;2023-11-19T12:40:20;94131.22;;;15.42;34.03
1472;BME280;963;42.644;23.336;2023-11-19T12:42:47;94126.66;;;15.43;34.11
1472;BME280;963;42.644;23.336;2023-11-19T12:45:13;94125.91;;;15.46;34.17
1472;BME280;963;42.644;23.336;2023-11-19T12:47:40;94130.41;;;15.49;34.40
1472;BME280;963;42.644;23.336;2023-11-19T12:50:07;94121.03;;;15.33;34.21
1472;BME280;963;42.644;23.336;2023-11-19T12:52:36;94120.34;;;15.26;34.83
1472;BME280;963;42.644;23.336;2023-11-19T12:55:03;94116.97;;;15.11;35.27
1472;BME280;963;42.644;23.336;2023-11-19T12:57:39;94112.47;;;15.01;35.51
1472;BME280;963;42.644;23.336;2023-11-19T13:00:06;94124.69;;;14.70;36.08
1472;BME280;963;42.644;23.336;2023-11-19T13:02:45;94132.13;;;15.07;35.81
1472;BME280;963;42.644;23.336;2023-11-19T13:08:08;94106.66;;;15.93;34.58
1472;BME280;963;42.644;23.336;2023-11-19T13:10:50;94096.44;;;17.08;33.37
1472;BME280;963;42.644;23.336;2023-11-19T13:13:17;94109.66;;;18.00;32.26
1472;BME280;963;42.644;23.336;2023-11-19T13:15:42;94109.25;;;19.11;30.91
1472;BME280;963;42.644;23.336;2023-11-19T13:18:10;94112.19;;;20.54;29.21
1472;BME280;963;42.644;23.336;2023-11-19T13:20:36;94110.56;;;21.43;28.64
1472;BME280;963;42.644;23.336;2023-11-19T13:23:03;94097.38;;;22.38;27.73
1472;BME280;963;42.644;23.336;2023-11-19T13:25:30;94091.88;;;23.42;26.20
1472;BME280;963;42.644;23.336;2023-11-19T13:27:57;94080.47;;;23.99;25.73
1472;BME280;963;42.644;23.336;2023-11-19T13:30:23;94082.38;;;24.85;24.98
1472;BME280;963;42.644;23.336;2023-11-19T13:32:49;94076.16;;;24.11;25.23
1472;BME280;963;42.644;23.336;2023-11-19T13:35:16;94085.94;;;23.47;25.76
1472;BME280;963;42.644;23.336;2023-11-19T13:37:42;94085.25;;;22.68;26.32
1472;BME280;963;42.644;23.336;2023-11-19T13:40:08;94079.56;;;23.93;25.36
1472;BME280;963;42.644;23.336;2023-11-19T13:42:36;94086.88;;;24.88;23.52
1472;BME280;963;42.644;23.336;2023-11-19T13:45:03;94067.63;;;24.99;23.57
1472;BME280;963;42.644;23.336;2023-11-19T13:47:28;94075.88;;;23.60;24.10
1472;BME280;963;42.644;23.336;2023-11-19T13:49:54;94084.59;;;21.15;25.25
1472;BME280;963;42.644;23.336;2023-11-19T13:52:19;94092.53;;;19.47;26.53
1472;BME280;963;42.644;23.336;2023-11-19T13:54:44;94127.09;;;17.77;28.31
1472;BME280;963;42.644;23.336;2023-11-19T13:57:10;94120.47;;;16.64;29.58